Accueil
METAR-TAF:

METAR-TAF

Aéroports :

Mineral Wells Airport

Mineral Wells, Texas, États-Unis

latitude: 32-46-54N, longitude: 098-03-37W, altitude: 297 m

Observation

Le bulletin a été fait il y a 36 minutes, à 04:53 UTC
Vent 8 kt de est/sud-est
Température 23°C
Humidité 94%
Pression 1013 hPa
Visibilité: 16.1 km
Quelques nuages à une hauteur de 2000 ft
Nuages épars à une hauteur de 3500 ft
Nuages fragmentés à une hauteur de 4800 ft

METAR: KMWL 200453Z AUTO 12008KT 10SM FEW020 SCT035 BKN048 23/22 A2990 RMK AO2 SLP111 T02330217

Heure: 00:29 (05:29 UTC)


TAF: absent

Observations et prévisions météorologiques de plus de 4000 aéroports (messages METAR et TAF).

Les stations disponibles sont représentées par des disques jaunes et rouges sur la carte.

Passer la souris dessus pour voir le nom de la station.

Cliquer dessus pour voir les observations et prévisions météorologiques.

Pour changer de carte: cliquez sur les boutons verts avec une croix noire pour zoomer, sur le bouton vert avec un tiret pour effectuer un zoom arrière, ou sur les flèches vertes pour les cartes adjacentes.


METAR-TAF: